Broxburn, United Kingdom
Current Conditions -  °F | °C
As of 8:50 PM on Sunday 21 Dec 2014 (Local Time) from EGPH Reporting Station
Light Rain Light Rain  
Wind Chill: 52°   Ceiling: Unl
Heat Index: 52°   Visibility: 6mi
Dew Point: 50°   Wind: 18mph
Humidity: 94%   Direction: 240°WSW
Pressure: 29.62"   Gusts: NA
Location:  55.93°N, 3.47°W
Report Text: EGPH 212050Z 24016KT 9999 -RA FEW022 SCT046 11/10 Q1003
Loading
Personal Weather Stations






























Interactive Weather Map New forecast layout! Learn more

10-Day Weather Forecast

Advertisements
Track Severe Weather on mobile